Airfield :
LOGIN :

Register | Disclaimer

   EN    FR    IT 

 










Legend :    VFR   Marginal VFR   IFR   Intensive IFR   Very Intensive IFR
Visi :
Ceiling :
>= 8 km
>= 3000ft
5 to 8 km
1000 to 3000 ft
1500m to 5 km
500 to 1000 ft
800 to 1500m
200 to 500 ft
< 800m
< 200 ft
Symbols :   Thunderstorms  Fog  Heavy snow  Heavy precipitations  Wind > 20 kt
SIGMETs :     Misc.  Thunderstorms  Icing  Turbulence  Mountain Waves  Volcanic Ashes






- Airport Elevation : 856 ft
- IATA code : VGO


LEVX - Vigo Peinador

CURRENT METAR :
  • 131500Z 27010KT CAVOK 22/14 Q1012 NOSIG

EXPIRED METARs :
  • 131430Z 26010KT CAVOK 21/13 Q1012 NOSIG
  • 131400Z 27012KT CAVOK 21/13 Q1012 NOSIG
  • 131330Z 27010KT 230V300 CAVOK 22/14 Q1012 NOSIG
  • 131300Z 26011KT 230V290 CAVOK 21/13 Q1012 NOSIG
  • 131230Z 25008KT 210V280 CAVOK 22/13 Q1012 NOSIG
  • 131200Z 25006KT 210V290 CAVOK 22/14 Q1012 NOSIG
  • 131130Z VRB03KT CAVOK 22/14 Q1012 NOSIG
  • 131100Z 19005KT 110V270 CAVOK 21/14 Q1012 NOSIG
  • 131030Z VRB04KT CAVOK 20/13 Q1013 NOSIG

TAF TAF LEVX
Valid from the 13 at 12:00 until the 14 at 12:00 UTC


131100Z 1312/1412 28009KT CAVOK TX25/1313Z TN15/1405Z
PROB40
TEMPO 1322/1407 3000 BR BKN005
PROB30
TEMPO 1323/1406 18010KT 0350 FG VV001
BECMG 1406/1408 18010KT
PROB40
TEMPO 1409/1412 3000 DZ BKN010



MET'MAP, your aeronautical weather chart ! - Copyright ORBIFLY December 2007 - Disclaimer

ORBIFLY MET'MAP TEAM :

Programming & Development : Alexandra Zaïnal
Original concept : Baudouin d'Aumeries
Technical & hardware support : Manuel Goepfert
Assistance : Marc-Olivier Méhu




SOURCES & CREDITS :

   NOAA